Yuma MCAS/Yuma International Airport
KNYL : rendu visible

Aérodrome :











RETROUVEZ-NOUS SUR...

 
LOGIN :

S'inscrire | Disclaimer

   EN    FR    IT 

 









Légende :    VFR   VFR Marginal   IFR   IFR Intensif   IFR Très Intensif
Visi : 
Plafond : 
>= 8 km
>= 3000ft
5 à 8 km
1000 à 3000 ft
1500m à 5 km
500 à 1000 ft
800 à 1500m
200 à 500 ft
< 800m
< 200 ft
Symboles :   Orages  Brouillard  Fortes neiges  Fortes précipitations  Vent > 20 kt






- Altitude de l'aérodrome : 213 ft
- Code IATA : YUM


KNYL - Yuma MCAS/Yuma International

DERNIER METAR :
  • 081257Z AUTO 00000KT 10SM CLR 15/11 A2986 RMK AO2 SLP110 T01500111 $

METARs EXPIRÉS :
  • 081157Z AUTO 12006KT 10SM CLR 16/09 A2985 RMK AO2 SLP106 T01610094 10172 20144 56019 $
  • 081057Z AUTO 00000KT 10SM CLR 15/09 A2986 RMK AO2 SLP109 T01500089 $
  • 080957Z AUTO 27003KT 10SM CLR 15/07 A2988 RMK AO2 SLP117 T01500072 $

TAF TAF KNYL
Valide du 08 à 09h jusqu'au 09 à 09h UTC


0809/0909 02010KT 9999 SCT080 QNH2990INS
TEMPO 0812/0818 34010KT 8000 -RA BR BKN050
FM081800 32010KT 9999 SCT030 BKN050 QNH3001INS AUTOMATED SENSOR METWATCH 0809 TIL 0814 T16/0813Z T25/0822Z



MET'MAP, la Météo Aéronautique d'un coup d'oeil ! - Copyright ORBIFLY Décembre 2007 - Disclaimer

ORBIFLY MET'MAP TEAM :

Programmation & Développement : Alexandra Zaïnal
Sur une idée originale de : Baudouin d'Aumeries
Assistance à la programmation : Marc-Olivier Méhu
Soutien technique & logistique : Manuel Goepfert

Contact : metmap@orbifly.com




SOURCES & CREDITS :

   NOAA       Earth
Advisory